Creek Data

    Home     View Charts     View Raw Data     Messages

ID Distance Battery Voltage Battery Current Internal Temp Internal Humidity External Temp Solar Input rssi snr Time Stamp Record
67891 14.2 3.61 -5 46 53 46 0 -70 9 03/04/2026 12:15 AM 50747
67890 14.2 3.77 -5 47 53 47 0 -71 9 03/04/2026 12:00 AM 50746
67889 14.2 3.61 -5 48 53 48 0 -71 8 03/03/2026 11:45 PM 50745
67888 14.2 3.77 -5 49 52 51 0 -70 9 03/03/2026 11:30 PM 50744
67887 14.2 3.66 -5 50 52 51 0 -71 8 03/03/2026 11:15 PM 50743
67886 14.2 3.78 -5 51 52 52 0 -69 9 03/03/2026 11:00 PM 50742
67885 14.2 3.67 -5 51 52 52 0 -69 8 03/03/2026 10:45 PM 50741
67884 14.2 3.78 -5 51 52 52 0 -69 9 03/03/2026 10:30 PM 50740
67883 14.2 3.65 -5 51 53 52 0 -71 8 03/03/2026 10:15 PM 50739
67882 14.2 3.67 -5 51 53 53 0 -71 8 03/03/2026 10:00 PM 50738
67881 14.2 3.78 -5 52 53 53 0 -69 8 03/03/2026 09:45 PM 50737
67880 14.2 3.65 -5 52 53 53 0.1 -70 8 03/03/2026 09:30 PM 50736
67879 14.2 3.66 -34 53 53 54 0 -70 8 03/03/2026 09:15 PM 50735
67878 14.2 3.65 -5 53 53 54 0 -69 8 03/03/2026 09:00 PM 50734
67877 14.2 3.67 -5 54 54 55 0 -70 9 03/03/2026 08:30 PM 50732
67876 14.2 3.67 -5 54 54 55 0.1 -71 9 03/03/2026 08:15 PM 50731
67875 14.2 3.66 -5 55 55 55 0 -69 8 03/03/2026 08:00 PM 50730
67874 14.2 3.79 -5 55 55 56 0.1 -70 9 03/03/2026 07:45 PM 50729
67873 14.2 3.66 -5 56 56 57 0.1 -70 9 03/03/2026 07:30 PM 50728
67872 14.2 3.68 -5 58 56 58 0 -69 8 03/03/2026 07:15 PM 50727
67871 14.2 3.62 -5 59 56 60 0 -71 8 03/03/2026 07:00 PM 50726
67870 14.2 3.63 -5 59 58 61 0 -69 9 03/03/2026 06:45 PM 50725
67869 14.3 3.79 -5 61 61 60 0.7 -70 9 03/03/2026 06:15 PM 50723
67868 14.3 3.62 -8 65 61 62 2.1 -71 8 03/03/2026 06:00 PM 50722
67867 14.3 3.87 8 70 59 66 4.5 -70 8 03/03/2026 05:45 PM 50721